sensor_id;sensor_type;location;lat;lon;timestamp;temperature;humidity
34145;HTU21D;69555;53.014;8.886;2023-04-25T00:01:23;7.20;94.64
34145;HTU21D;69555;53.014;8.886;2023-04-25T00:03:49;7.15;94.68
34145;HTU21D;69555;53.014;8.886;2023-04-25T00:06:16;7.16;94.20
34145;HTU21D;69555;53.014;8.886;2023-04-25T00:08:42;7.14;94.20
34145;HTU21D;69555;53.014;8.886;2023-04-25T00:11:09;7.15;93.73
34145;HTU21D;69555;53.014;8.886;2023-04-25T00:13:35;7.31;92.92
34145;HTU21D;69555;53.014;8.886;2023-04-25T00:16:01;7.29;93.45
34145;HTU21D;69555;53.014;8.886;2023-04-25T00:18:29;7.26;92.72
34145;HTU21D;69555;53.014;8.886;2023-04-25T00:20:55;7.34;92.74
34145;HTU21D;69555;53.014;8.886;2023-04-25T00:23:21;7.27;92.22
34145;HTU21D;69555;53.014;8.886;2023-04-25T00:25:49;7.11;93.21
34145;HTU21D;69555;53.014;8.886;2023-04-25T00:28:16;7.22;92.94
34145;HTU21D;69555;53.014;8.886;2023-04-25T00:30:43;7.24;91.85
34145;HTU21D;69555;53.014;8.886;2023-04-25T00:33:09;7.25;91.63
34145;HTU21D;69555;53.014;8.886;2023-04-25T00:35:36;7.20;90.43
34145;HTU21D;69555;53.014;8.886;2023-04-25T00:38:02;7.09;90.96
34145;HTU21D;69555;53.014;8.886;2023-04-25T00:40:27;7.17;89.97
34145;HTU21D;69555;53.014;8.886;2023-04-25T00:42:53;7.16;89.83
34145;HTU21D;69555;53.014;8.886;2023-04-25T00:45:20;7.18;90.69
34145;HTU21D;69555;53.014;8.886;2023-04-25T00:47:46;7.46;89.57
34145;HTU21D;69555;53.014;8.886;2023-04-25T00:50:13;7.52;89.05
34145;HTU21D;69555;53.014;8.886;2023-04-25T00:52:40;7.50;89.67
34145;HTU21D;69555;53.014;8.886;2023-04-25T00:55:07;7.35;90.31
34145;HTU21D;69555;53.014;8.886;2023-04-25T00:57:33;7.26;90.00
34145;HTU21D;69555;53.014;8.886;2023-04-25T00:59:59;7.32;90.47
34145;HTU21D;69555;53.014;8.886;2023-04-25T01:02:26;7.20;90.09
34145;HTU21D;69555;53.014;8.886;2023-04-25T01:04:53;7.12;90.66
34145;HTU21D;69555;53.014;8.886;2023-04-25T01:07:19;7.07;90.89
34145;HTU21D;69555;53.014;8.886;2023-04-25T01:09:46;7.05;90.11
34145;HTU21D;69555;53.014;8.886;2023-04-25T01:12:13;6.95;89.78
34145;HTU21D;69555;53.014;8.886;2023-04-25T01:14:40;6.88;90.07
34145;HTU21D;69555;53.014;8.886;2023-04-25T01:17:06;6.98;89.82
34145;HTU21D;69555;53.014;8.886;2023-04-25T01:19:32;6.85;89.72
34145;HTU21D;69555;53.014;8.886;2023-04-25T01:21:58;6.84;89.41
34145;HTU21D;69555;53.014;8.886;2023-04-25T01:24:25;7.08;88.24
34145;HTU21D;69555;53.014;8.886;2023-04-25T01:26:51;6.83;88.92
34145;HTU21D;69555;53.014;8.886;2023-04-25T01:29:18;6.94;87.38
34145;HTU21D;69555;53.014;8.886;2023-04-25T01:31:45;6.86;87.41
34145;HTU21D;69555;53.014;8.886;2023-04-25T01:34:13;6.95;87.44
34145;HTU21D;69555;53.014;8.886;2023-04-25T01:36:40;7.01;86.67
34145;HTU21D;69555;53.014;8.886;2023-04-25T01:39:06;6.95;86.08
34145;HTU21D;69555;53.014;8.886;2023-04-25T01:41:32;6.79;86.39
34145;HTU21D;69555;53.014;8.886;2023-04-25T01:43:58;7.08;85.67
34145;HTU21D;69555;53.014;8.886;2023-04-25T01:46:24;6.86;86.48
34145;HTU21D;69555;53.014;8.886;2023-04-25T01:48:49;6.87;86.59
34145;HTU21D;69555;53.014;8.886;2023-04-25T01:51:15;6.85;86.47
34145;HTU21D;69555;53.014;8.886;2023-04-25T01:53:42;6.91;86.74
34145;HTU21D;69555;53.014;8.886;2023-04-25T01:56:08;7.08;85.63
34145;HTU21D;69555;53.014;8.886;2023-04-25T01:58:34;7.04;85.55
34145;HTU21D;69555;53.014;8.886;2023-04-25T02:00:59;7.11;85.54
34145;HTU21D;69555;53.014;8.886;2023-04-25T02:03:26;7.11;85.87
34145;HTU21D;69555;53.014;8.886;2023-04-25T02:05:53;7.23;85.35
34145;HTU21D;69555;53.014;8.886;2023-04-25T02:08:18;6.93;85.91
34145;HTU21D;69555;53.014;8.886;2023-04-25T02:10:45;7.14;85.75
34145;HTU21D;69555;53.014;8.886;2023-04-25T02:13:10;7.22;85.87
34145;HTU21D;69555;53.014;8.886;2023-04-25T02:15:37;7.03;85.04
34145;HTU21D;69555;53.014;8.886;2023-04-25T02:18:03;6.72;86.33
34145;HTU21D;69555;53.014;8.886;2023-04-25T02:20:29;6.68;87.54
34145;HTU21D;69555;53.014;8.886;2023-04-25T02:22:55;6.73;87.09
34145;HTU21D;69555;53.014;8.886;2023-04-25T02:25:21;6.90;85.99
34145;HTU21D;69555;53.014;8.886;2023-04-25T02:27:48;6.71;86.46
34145;HTU21D;69555;53.014;8.886;2023-04-25T02:30:14;6.65;86.47
34145;HTU21D;69555;53.014;8.886;2023-04-25T02:32:40;6.95;85.00
34145;HTU21D;69555;53.014;8.886;2023-04-25T02:35:06;6.99;84.70
34145;HTU21D;69555;53.014;8.886;2023-04-25T02:37:37;6.73;85.43
34145;HTU21D;69555;53.014;8.886;2023-04-25T02:40:02;6.46;85.74
34145;HTU21D;69555;53.014;8.886;2023-04-25T02:42:29;6.45;85.35
34145;HTU21D;69555;53.014;8.886;2023-04-25T02:44:54;6.54;85.22
34145;HTU21D;69555;53.014;8.886;2023-04-25T02:47:20;6.41;85.13
34145;HTU21D;69555;53.014;8.886;2023-04-25T02:49:47;6.26;85.77
34145;HTU21D;69555;53.014;8.886;2023-04-25T02:52:13;6.38;85.77
34145;HTU21D;69555;53.014;8.886;2023-04-25T02:54:40;6.25;85.61
34145;HTU21D;69555;53.014;8.886;2023-04-25T02:57:06;6.30;85.58
34145;HTU21D;69555;53.014;8.886;2023-04-25T02:59:31;6.14;85.93
34145;HTU21D;69555;53.014;8.886;2023-04-25T03:01:58;6.10;85.96
34145;HTU21D;69555;53.014;8.886;2023-04-25T03:04:24;6.07;85.29
34145;HTU21D;69555;53.014;8.886;2023-04-25T03:06:50;6.12;85.38
34145;HTU21D;69555;53.014;8.886;2023-04-25T03:09:16;6.21;84.71
34145;HTU21D;69555;53.014;8.886;2023-04-25T03:11:44;6.37;83.60
34145;HTU21D;69555;53.014;8.886;2023-04-25T03:14:12;6.05;85.45
34145;HTU21D;69555;53.014;8.886;2023-04-25T03:16:37;6.05;85.63
34145;HTU21D;69555;53.014;8.886;2023-04-25T03:19:03;6.15;86.09
34145;HTU21D;69555;53.014;8.886;2023-04-25T03:21:30;5.92;86.43
34145;HTU21D;69555;53.014;8.886;2023-04-25T03:23:57;6.04;85.41
34145;HTU21D;69555;53.014;8.886;2023-04-25T03:26:24;6.23;85.26
34145;HTU21D;69555;53.014;8.886;2023-04-25T03:28:50;6.07;85.84
34145;HTU21D;69555;53.014;8.886;2023-04-25T03:31:15;6.19;85.66
34145;HTU21D;69555;53.014;8.886;2023-04-25T03:33:41;6.35;85.26
34145;HTU21D;69555;53.014;8.886;2023-04-25T03:36:07;6.25;85.44
34145;HTU21D;69555;53.014;8.886;2023-04-25T03:38:33;6.22;84.96
34145;HTU21D;69555;53.014;8.886;2023-04-25T03:40:58;6.10;85.58
34145;HTU21D;69555;53.014;8.886;2023-04-25T03:43:24;6.09;85.78
34145;HTU21D;69555;53.014;8.886;2023-04-25T03:45:49;6.08;85.39
34145;HTU21D;69555;53.014;8.886;2023-04-25T03:48:15;6.15;85.19
34145;HTU21D;69555;53.014;8.886;2023-04-25T03:50:41;6.37;84.36
34145;HTU21D;69555;53.014;8.886;2023-04-25T03:53:06;6.21;85.13
34145;HTU21D;69555;53.014;8.886;2023-04-25T03:55:32;6.41;84.16
34145;HTU21D;69555;53.014;8.886;2023-04-25T03:57:58;6.33;84.29
34145;HTU21D;69555;53.014;8.886;2023-04-25T04:00:25;5.87;86.31
34145;HTU21D;69555;53.014;8.886;2023-04-25T04:02:52;5.82;86.54
34145;HTU21D;69555;53.014;8.886;2023-04-25T04:05:19;5.82;85.57
34145;HTU21D;69555;53.014;8.886;2023-04-25T04:07:44;6.15;84.14
34145;HTU21D;69555;53.014;8.886;2023-04-25T04:10:11;5.94;84.78
34145;HTU21D;69555;53.014;8.886;2023-04-25T04:12:37;5.87;85.56
34145;HTU21D;69555;53.014;8.886;2023-04-25T04:15:04;6.04;84.25
34145;HTU21D;69555;53.014;8.886;2023-04-25T04:17:31;6.00;84.28
34145;HTU21D;69555;53.014;8.886;2023-04-25T04:19:56;6.14;83.46
34145;HTU21D;69555;53.014;8.886;2023-04-25T04:22:22;5.94;84.09
34145;HTU21D;69555;53.014;8.886;2023-04-25T04:24:48;6.04;83.71
34145;HTU21D;69555;53.014;8.886;2023-04-25T04:27:15;5.96;83.65
34145;HTU21D;69555;53.014;8.886;2023-04-25T04:29:43;6.04;83.96
34145;HTU21D;69555;53.014;8.886;2023-04-25T04:32:09;6.31;81.74
34145;HTU21D;69555;53.014;8.886;2023-04-25T04:34:34;6.66;80.79
34145;HTU21D;69555;53.014;8.886;2023-04-25T04:37:00;7.19;78.46
34145;HTU21D;69555;53.014;8.886;2023-04-25T04:39:25;7.19;76.87
34145;HTU21D;69555;53.014;8.886;2023-04-25T04:41:52;7.52;75.09
34145;HTU21D;69555;53.014;8.886;2023-04-25T04:44:18;8.03;73.73
34145;HTU21D;69555;53.014;8.886;2023-04-25T04:46:44;8.31;71.67
34145;HTU21D;69555;53.014;8.886;2023-04-25T04:49:10;8.01;73.56
34145;HTU21D;69555;53.014;8.886;2023-04-25T04:51:36;8.95;69.79
34145;HTU21D;69555;53.014;8.886;2023-04-25T04:54:03;8.77;70.45
34145;HTU21D;69555;53.014;8.886;2023-04-25T04:56:31;7.98;73.07
34145;HTU21D;69555;53.014;8.886;2023-04-25T04:58:57;7.30;75.44
34145;HTU21D;69555;53.014;8.886;2023-04-25T05:01:25;6.87;77.77
34145;HTU21D;69555;53.014;8.886;2023-04-25T05:03:52;6.61;79.63
34145;HTU21D;69555;53.014;8.886;2023-04-25T05:06:18;6.61;78.52
34145;HTU21D;69555;53.014;8.886;2023-04-25T05:08:45;6.53;79.71
34145;HTU21D;69555;53.014;8.886;2023-04-25T05:11:12;6.19;80.64
34145;HTU21D;69555;53.014;8.886;2023-04-25T05:13:37;5.96;81.14
34145;HTU21D;69555;53.014;8.886;2023-04-25T05:16:03;5.87;83.39
34145;HTU21D;69555;53.014;8.886;2023-04-25T05:18:30;5.90;82.52
34145;HTU21D;69555;53.014;8.886;2023-04-25T05:20:56;6.21;81.11
34145;HTU21D;69555;53.014;8.886;2023-04-25T05:23:23;5.95;81.59
34145;HTU21D;69555;53.014;8.886;2023-04-25T05:25:48;6.08;82.05
34145;HTU21D;69555;53.014;8.886;2023-04-25T05:28:14;6.13;81.72
34145;HTU21D;69555;53.014;8.886;2023-04-25T05:30:39;6.41;81.27
34145;HTU21D;69555;53.014;8.886;2023-04-25T05:33:05;6.33;79.91
34145;HTU21D;69555;53.014;8.886;2023-04-25T05:35:30;6.39;80.45
34145;HTU21D;69555;53.014;8.886;2023-04-25T05:37:57;6.44;79.06
34145;HTU21D;69555;53.014;8.886;2023-04-25T05:40:23;6.96;77.60
34145;HTU21D;69555;53.014;8.886;2023-04-25T05:42:49;6.55;79.06
34145;HTU21D;69555;53.014;8.886;2023-04-25T05:45:16;7.42;76.20
34145;HTU21D;69555;53.014;8.886;2023-04-25T05:47:42;9.47;67.31
34145;HTU21D;69555;53.014;8.886;2023-04-25T05:50:09;9.56;67.30
34145;HTU21D;69555;53.014;8.886;2023-04-25T05:52:34;8.72;68.93
34145;HTU21D;69555;53.014;8.886;2023-04-25T05:55:00;8.49;70.39
34145;HTU21D;69555;53.014;8.886;2023-04-25T05:57:26;10.60;63.02
34145;HTU21D;69555;53.014;8.886;2023-04-25T05:59:52;13.52;54.51
34145;HTU21D;69555;53.014;8.886;2023-04-25T06:02:20;13.25;52.78
34145;HTU21D;69555;53.014;8.886;2023-04-25T06:04:50;15.39;46.79
34145;HTU21D;69555;53.014;8.886;2023-04-25T06:07:15;15.30;49.27
34145;HTU21D;69555;53.014;8.886;2023-04-25T06:09:41;17.37;42.64
34145;HTU21D;69555;53.014;8.886;2023-04-25T06:12:07;18.41;39.64
34145;HTU21D;69555;53.014;8.886;2023-04-25T06:14:34;16.06;44.81
34145;HTU21D;69555;53.014;8.886;2023-04-25T06:17:02;16.98;42.91
34145;HTU21D;69555;53.014;8.886;2023-04-25T06:19:37;18.32;39.92
34145;HTU21D;69555;53.014;8.886;2023-04-25T06:22:04;17.21;41.29
34145;HTU21D;69555;53.014;8.886;2023-04-25T06:24:30;20.17;36.22
34145;HTU21D;69555;53.014;8.886;2023-04-25T06:26:57;15.59;45.26
34145;HTU21D;69555;53.014;8.886;2023-04-25T06:29:24;18.76;38.56
34145;HTU21D;69555;53.014;8.886;2023-04-25T06:31:49;20.03;35.71
34145;HTU21D;69555;53.014;8.886;2023-04-25T06:34:16;21.42;32.73
34145;HTU21D;69555;53.014;8.886;2023-04-25T06:36:44;19.95;35.96
34145;HTU21D;69555;53.014;8.886;2023-04-25T06:39:09;20.04;34.27
34145;HTU21D;69555;53.014;8.886;2023-04-25T06:41:37;20.74;34.21
34145;HTU21D;69555;53.014;8.886;2023-04-25T06:44:03;18.02;38.94
34145;HTU21D;69555;53.014;8.886;2023-04-25T06:46:28;20.18;34.05
34145;HTU21D;69555;53.014;8.886;2023-04-25T06:48:54;22.43;30.64
34145;HTU21D;69555;53.014;8.886;2023-04-25T06:51:21;20.30;33.68
34145;HTU21D;69555;53.014;8.886;2023-04-25T06:53:48;21.24;32.15
34145;HTU21D;69555;53.014;8.886;2023-04-25T06:56:13;23.44;28.05
34145;HTU21D;69555;53.014;8.886;2023-04-25T06:58:38;20.56;33.40
34145;HTU21D;69555;53.014;8.886;2023-04-25T07:01:04;15.42;43.84
34145;HTU21D;69555;53.014;8.886;2023-04-25T07:03:29;13.55;49.46
34145;HTU21D;69555;53.014;8.886;2023-04-25T07:05:56;11.98;53.05
34145;HTU21D;69555;53.014;8.886;2023-04-25T07:08:23;12.41;54.82
34145;HTU21D;69555;53.014;8.886;2023-04-25T07:10:49;11.14;55.20
34145;HTU21D;69555;53.014;8.886;2023-04-25T07:13:17;10.60;58.97
34145;HTU21D;69555;53.014;8.886;2023-04-25T07:15:43;10.21;60.89
34145;HTU21D;69555;53.014;8.886;2023-04-25T07:18:09;10.00;61.27
34145;HTU21D;69555;53.014;8.886;2023-04-25T07:20:36;9.39;62.72
34145;HTU21D;69555;53.014;8.886;2023-04-25T07:23:02;10.04;61.02
34145;HTU21D;69555;53.014;8.886;2023-04-25T07:25:28;9.77;62.35
34145;HTU21D;69555;53.014;8.886;2023-04-25T07:27:53;9.42;64.43
34145;HTU21D;69555;53.014;8.886;2023-04-25T07:30:18;9.06;63.93
34145;HTU21D;69555;53.014;8.886;2023-04-25T07:32:44;9.56;64.13
34145;HTU21D;69555;53.014;8.886;2023-04-25T07:35:10;9.96;61.51
34145;HTU21D;69555;53.014;8.886;2023-04-25T07:37:37;14.44;48.70
34145;HTU21D;69555;53.014;8.886;2023-04-25T07:40:04;18.49;38.04
34145;HTU21D;69555;53.014;8.886;2023-04-25T07:42:30;21.11;32.70
34145;HTU21D;69555;53.014;8.886;2023-04-25T07:44:57;22.24;29.65
34145;HTU21D;69555;53.014;8.886;2023-04-25T07:47:22;21.01;32.14
34145;HTU21D;69555;53.014;8.886;2023-04-25T07:49:48;20.48;32.69
34145;HTU21D;69555;53.014;8.886;2023-04-25T07:52:13;17.32;39.56
34145;HTU21D;69555;53.014;8.886;2023-04-25T07:54:40;19.03;35.49
34145;HTU21D;69555;53.014;8.886;2023-04-25T07:57:07;21.03;30.90
34145;HTU21D;69555;53.014;8.886;2023-04-25T07:59:32;23.89;27.89
34145;HTU21D;69555;53.014;8.886;2023-04-25T08:02:00;24.15;26.03
34145;HTU21D;69555;53.014;8.886;2023-04-25T08:04:26;19.70;30.31
34145;HTU21D;69555;53.014;8.886;2023-04-25T08:06:52;18.12;34.60
34145;HTU21D;69555;53.014;8.886;2023-04-25T08:09:19;15.68;39.39
34145;HTU21D;69555;53.014;8.886;2023-04-25T08:11:46;16.67;37.64
34145;HTU21D;69555;53.014;8.886;2023-04-25T08:14:13;15.99;41.57
34145;HTU21D;69555;53.014;8.886;2023-04-25T08:16:40;14.23;44.03
34145;HTU21D;69555;53.014;8.886;2023-04-25T08:19:06;13.45;46.90
34145;HTU21D;69555;53.014;8.886;2023-04-25T08:21:33;12.21;48.37
34145;HTU21D;69555;53.014;8.886;2023-04-25T08:23:58;11.60;53.07
34145;HTU21D;69555;53.014;8.886;2023-04-25T08:26:24;11.56;53.87
34145;HTU21D;69555;53.014;8.886;2023-04-25T08:28:50;10.70;55.77
34145;HTU21D;69555;53.014;8.886;2023-04-25T08:31:17;10.49;56.29
34145;HTU21D;69555;53.014;8.886;2023-04-25T08:33:44;9.80;57.16
34145;HTU21D;69555;53.014;8.886;2023-04-25T08:36:10;9.19;60.50
34145;HTU21D;69555;53.014;8.886;2023-04-25T08:38:36;8.07;67.00
34145;HTU21D;69555;53.014;8.886;2023-04-25T08:41:02;7.77;68.02
34145;HTU21D;69555;53.014;8.886;2023-04-25T08:43:29;7.37;68.06
34145;HTU21D;69555;53.014;8.886;2023-04-25T08:45:59;7.22;69.70
34145;HTU21D;69555;53.014;8.886;2023-04-25T08:48:27;7.50;69.02
34145;HTU21D;69555;53.014;8.886;2023-04-25T08:50:55;7.88;67.86
34145;HTU21D;69555;53.014;8.886;2023-04-25T08:53:30;8.07;67.00
34145;HTU21D;69555;53.014;8.886;2023-04-25T08:55:58;8.14;66.85
34145;HTU21D;69555;53.014;8.886;2023-04-25T08:58:26;8.55;65.27
34145;HTU21D;69555;53.014;8.886;2023-04-25T09:00:52;8.82;63.64
34145;HTU21D;69555;53.014;8.886;2023-04-25T09:03:19;8.92;63.51
34145;HTU21D;69555;53.014;8.886;2023-04-25T09:05:45;9.44;63.35
34145;HTU21D;69555;53.014;8.886;2023-04-25T09:08:10;9.78;61.50
34145;HTU21D;69555;53.014;8.886;2023-04-25T09:10:37;9.77;60.71
34145;HTU21D;69555;53.014;8.886;2023-04-25T09:13:08;9.93;61.21
34145;HTU21D;69555;53.014;8.886;2023-04-25T09:15:51;10.35;57.70
34145;HTU21D;69555;53.014;8.886;2023-04-25T09:18:32;10.95;56.00
34145;HTU21D;69555;53.014;8.886;2023-04-25T09:21:08;11.39;53.65
34145;HTU21D;69555;53.014;8.886;2023-04-25T09:23:48;10.77;55.61
34145;HTU21D;69555;53.014;8.886;2023-04-25T09:26:18;11.69;56.03
34145;HTU21D;69555;53.014;8.886;2023-04-25T09:28:43;11.49;55.96
34145;HTU21D;69555;53.014;8.886;2023-04-25T09:31:10;12.37;53.19
34145;HTU21D;69555;53.014;8.886;2023-04-25T09:33:38;11.68;54.01
34145;HTU21D;69555;53.014;8.886;2023-04-25T09:36:08;11.84;52.12
34145;HTU21D;69555;53.014;8.886;2023-04-25T09:38:42;11.42;55.10
34145;HTU21D;69555;53.014;8.886;2023-04-25T09:41:08;11.10;54.65
34145;HTU21D;69555;53.014;8.886;2023-04-25T09:43:35;10.62;55.60
34145;HTU21D;69555;53.014;8.886;2023-04-25T09:46:01;10.35;57.10
34145;HTU21D;69555;53.014;8.886;2023-04-25T09:48:28;9.83;59.40
34145;HTU21D;69555;53.014;8.886;2023-04-25T09:51:12;9.62;58.67
34145;HTU21D;69555;53.014;8.886;2023-04-25T09:53:42;9.67;59.41
34145;HTU21D;69555;53.014;8.886;2023-04-25T09:56:09;10.04;59.25
34145;HTU21D;69555;53.014;8.886;2023-04-25T09:58:36;10.10;59.43
34145;HTU21D;69555;53.014;8.886;2023-04-25T10:01:04;10.49;60.74
34145;HTU21D;69555;53.014;8.886;2023-04-25T10:03:32;11.24;60.63
34145;HTU21D;69555;53.014;8.886;2023-04-25T10:06:07;11.55;58.98
34145;HTU21D;69555;53.014;8.886;2023-04-25T10:08:35;11.17;57.42
34145;HTU21D;69555;53.014;8.886;2023-04-25T10:11:04;11.05;56.58
34145;HTU21D;69555;53.014;8.886;2023-04-25T10:13:30;11.04;58.79
34145;HTU21D;69555;53.014;8.886;2023-04-25T10:16:03;11.02;57.48
34145;HTU21D;69555;53.014;8.886;2023-04-25T10:18:30;11.48;58.77
34145;HTU21D;69555;53.014;8.886;2023-04-25T10:20:59;11.45;60.55
34145;HTU21D;69555;53.014;8.886;2023-04-25T10:23:25;11.73;54.68
34145;HTU21D;69555;53.014;8.886;2023-04-25T10:25:52;11.64;54.36
34145;HTU21D;69555;53.014;8.886;2023-04-25T10:28:18;11.33;53.87
34145;HTU21D;69555;53.014;8.886;2023-04-25T10:31:02;11.18;54.04
34145;HTU21D;69555;53.014;8.886;2023-04-25T10:33:38;10.89;54.84
34145;HTU21D;69555;53.014;8.886;2023-04-25T10:36:20;10.36;54.67
34145;HTU21D;69555;53.014;8.886;2023-04-25T10:38:47;9.80;54.97
34145;HTU21D;69555;53.014;8.886;2023-04-25T10:41:13;9.99;55.55
34145;HTU21D;69555;53.014;8.886;2023-04-25T10:43:43;9.29;57.93
34145;HTU21D;69555;53.014;8.886;2023-04-25T10:46:23;9.30;58.77
34145;HTU21D;69555;53.014;8.886;2023-04-25T10:48:50;9.82;57.40
34145;HTU21D;69555;53.014;8.886;2023-04-25T10:51:21;10.20;60.65
34145;HTU21D;69555;53.014;8.886;2023-04-25T10:54:06;10.28;60.98
34145;HTU21D;69555;53.014;8.886;2023-04-25T10:56:35;10.45;59.60
34145;HTU21D;69555;53.014;8.886;2023-04-25T10:59:19;10.67;59.71
34145;HTU21D;69555;53.014;8.886;2023-04-25T11:01:56;10.58;60.70
34145;HTU21D;69555;53.014;8.886;2023-04-25T11:04:33;11.38;62.92
34145;HTU21D;69555;53.014;8.886;2023-04-25T11:09:29;10.74;62.96
34145;HTU21D;69555;53.014;8.886;2023-04-25T11:11:57;11.12;62.24
34145;HTU21D;69555;53.014;8.886;2023-04-25T11:14:24;11.72;60.22
34145;HTU21D;69555;53.014;8.886;2023-04-25T11:16:55;12.26;59.67
34145;HTU21D;69555;53.014;8.886;2023-04-25T11:19:23;12.11;54.70
34145;HTU21D;69555;53.014;8.886;2023-04-25T11:22:00;12.27;54.71
34145;HTU21D;69555;53.014;8.886;2023-04-25T11:24:34;12.15;56.85
34145;HTU21D;69555;53.014;8.886;2023-04-25T11:27:05;12.04;55.93
34145;HTU21D;69555;53.014;8.886;2023-04-25T11:29:35;12.06;56.71
34145;HTU21D;69555;53.014;8.886;2023-04-25T11:32:00;11.64;53.90
34145;HTU21D;69555;53.014;8.886;2023-04-25T11:34:28;11.45;54.27
34145;HTU21D;69555;53.014;8.886;2023-04-25T11:36:56;12.14;55.17
34145;HTU21D;69555;53.014;8.886;2023-04-25T11:39:21;12.21;53.83
34145;HTU21D;69555;53.014;8.886;2023-04-25T11:41:49;11.76;53.87
34145;HTU21D;69555;53.014;8.886;2023-04-25T11:44:19;10.37;60.70
34145;HTU21D;69555;53.014;8.886;2023-04-25T11:46:45;8.57;73.03
34145;HTU21D;69555;53.014;8.886;2023-04-25T11:49:11;7.83;81.43
34145;HTU21D;69555;53.014;8.886;2023-04-25T11:51:44;7.63;78.80
34145;HTU21D;69555;53.014;8.886;2023-04-25T11:54:11;7.56;80.77
34145;HTU21D;69555;53.014;8.886;2023-04-25T11:56:44;7.74;80.99
34145;HTU21D;69555;53.014;8.886;2023-04-25T11:59:10;7.91;78.92
34145;HTU21D;69555;53.014;8.886;2023-04-25T12:01:38;8.08;76.05
34145;HTU21D;69555;53.014;8.886;2023-04-25T12:04:25;8.80;74.70
34145;HTU21D;69555;53.014;8.886;2023-04-25T12:06:53;8.96;70.95
34145;HTU21D;69555;53.014;8.886;2023-04-25T12:09:27;9.94;78.63
34145;HTU21D;69555;53.014;8.886;2023-04-25T12:11:56;10.58;69.84
34145;HTU21D;69555;53.014;8.886;2023-04-25T12:14:31;11.74;70.28
34145;HTU21D;69555;53.014;8.886;2023-04-25T12:16:58;11.45;63.02
34145;HTU21D;69555;53.014;8.886;2023-04-25T12:19:24;11.27;65.43
34145;HTU21D;69555;53.014;8.886;2023-04-25T12:21:51;11.07;63.34
34145;HTU21D;69555;53.014;8.886;2023-04-25T12:24:21;10.75;63.38
34145;HTU21D;69555;53.014;8.886;2023-04-25T12:27:02;10.44;64.33
34145;HTU21D;69555;53.014;8.886;2023-04-25T12:29:29;10.16;63.80
34145;HTU21D;69555;53.014;8.886;2023-04-25T12:31:55;10.33;66.36
34145;HTU21D;69555;53.014;8.886;2023-04-25T12:34:22;10.42;63.06
34145;HTU21D;69555;53.014;8.886;2023-04-25T12:36:48;10.74;59.28
34145;HTU21D;69555;53.014;8.886;2023-04-25T12:39:21;10.21;59.56
34145;HTU21D;69555;53.014;8.886;2023-04-25T12:41:48;9.69;60.51
34145;HTU21D;69555;53.014;8.886;2023-04-25T12:44:15;10.12;61.78
34145;HTU21D;69555;53.014;8.886;2023-04-25T12:46:40;10.31;60.54
34145;HTU21D;69555;53.014;8.886;2023-04-25T12:49:06;10.25;61.33
34145;HTU21D;69555;53.014;8.886;2023-04-25T12:51:36;10.90;59.43
34145;HTU21D;69555;53.014;8.886;2023-04-25T12:54:03;10.93;61.58
34145;HTU21D;69555;53.014;8.886;2023-04-25T12:56:30;11.14;58.66
34145;HTU21D;69555;53.014;8.886;2023-04-25T12:58:57;10.83;57.64
34145;HTU21D;69555;53.014;8.886;2023-04-25T13:01:22;10.64;58.38
34145;HTU21D;69555;53.014;8.886;2023-04-25T13:03:48;11.08;60.66
34145;HTU21D;69555;53.014;8.886;2023-04-25T13:06:16;11.25;59.13
34145;HTU21D;69555;53.014;8.886;2023-04-25T13:08:43;11.38;59.03
34145;HTU21D;69555;53.014;8.886;2023-04-25T13:11:10;10.96;60.34
34145;HTU21D;69555;53.014;8.886;2023-04-25T13:13:36;10.66;59.62
34145;HTU21D;69555;53.014;8.886;2023-04-25T13:16:07;9.62;61.52
34145;HTU21D;69555;53.014;8.886;2023-04-25T13:18:34;9.08;66.43
34145;HTU21D;69555;53.014;8.886;2023-04-25T13:21:00;8.39;68.07
34145;HTU21D;69555;53.014;8.886;2023-04-25T13:23:27;8.52;68.13
34145;HTU21D;69555;53.014;8.886;2023-04-25T13:25:53;8.60;66.96
34145;HTU21D;69555;53.014;8.886;2023-04-25T13:28:19;8.65;68.52
34145;HTU21D;69555;53.014;8.886;2023-04-25T13:30:46;8.79;66.36
34145;HTU21D;69555;53.014;8.886;2023-04-25T13:33:13;9.33;63.85
34145;HTU21D;69555;53.014;8.886;2023-04-25T13:35:40;10.34;61.85
34145;HTU21D;69555;53.014;8.886;2023-04-25T13:38:05;10.38;56.42
34145;HTU21D;69555;53.014;8.886;2023-04-25T13:40:31;10.49;56.68
34145;HTU21D;69555;53.014;8.886;2023-04-25T13:42:57;10.60;59.96
34145;HTU21D;69555;53.014;8.886;2023-04-25T13:45:23;10.75;56.24
34145;HTU21D;69555;53.014;8.886;2023-04-25T13:47:48;10.77;56.71
34145;HTU21D;69555;53.014;8.886;2023-04-25T13:50:14;11.10;57.75
34145;HTU21D;69555;53.014;8.886;2023-04-25T13:52:42;10.97;57.66
34145;HTU21D;69555;53.014;8.886;2023-04-25T13:55:09;10.69;50.79
34145;HTU21D;69555;53.014;8.886;2023-04-25T13:57:36;10.63;50.30
34145;HTU21D;69555;53.014;8.886;2023-04-25T14:00:04;10.98;51.98
34145;HTU21D;69555;53.014;8.886;2023-04-25T14:02:35;10.88;48.19
34145;HTU21D;69555;53.014;8.886;2023-04-25T14:05:02;10.87;48.31
34145;HTU21D;69555;53.014;8.886;2023-04-25T14:07:28;10.86;49.05
34145;HTU21D;69555;53.014;8.886;2023-04-25T14:09:54;11.03;50.46
34145;HTU21D;69555;53.014;8.886;2023-04-25T14:12:23;11.44;50.63
34145;HTU21D;69555;53.014;8.886;2023-04-25T14:14:50;11.16;48.43
34145;HTU21D;69555;53.014;8.886;2023-04-25T14:17:16;11.17;52.01
34145;HTU21D;69555;53.014;8.886;2023-04-25T14:19:43;11.32;52.00
34145;HTU21D;69555;53.014;8.886;2023-04-25T14:22:11;11.43;53.27
34145;HTU21D;69555;53.014;8.886;2023-04-25T14:24:36;11.44;59.61
34145;HTU21D;69555;53.014;8.886;2023-04-25T14:27:02;11.08;57.74
34145;HTU21D;69555;53.014;8.886;2023-04-25T14:29:28;10.48;57.00
34145;HTU21D;69555;53.014;8.886;2023-04-25T14:31:53;10.26;60.23
34145;HTU21D;69555;53.014;8.886;2023-04-25T14:34:20;9.93;54.95
34145;HTU21D;69555;53.014;8.886;2023-04-25T14:36:46;9.57;57.53
34145;HTU21D;69555;53.014;8.886;2023-04-25T14:39:12;9.46;56.96
34145;HTU21D;69555;53.014;8.886;2023-04-25T14:41:39;9.49;55.64
34145;HTU21D;69555;53.014;8.886;2023-04-25T14:44:04;9.29;61.57
34145;HTU21D;69555;53.014;8.886;2023-04-25T14:46:30;8.89;64.72
34145;HTU21D;69555;53.014;8.886;2023-04-25T14:48:56;8.47;68.61
34145;HTU21D;69555;53.014;8.886;2023-04-25T14:51:23;8.12;68.20
34145;HTU21D;69555;53.014;8.886;2023-04-25T14:53:48;7.83;71.91
34145;HTU21D;69555;53.014;8.886;2023-04-25T14:56:14;8.02;72.89
34145;HTU21D;69555;53.014;8.886;2023-04-25T14:58:39;7.99;70.97
34145;HTU21D;69555;53.014;8.886;2023-04-25T15:01:05;8.14;71.10
34145;HTU21D;69555;53.014;8.886;2023-04-25T15:03:32;8.29;69.66
34145;HTU21D;69555;53.014;8.886;2023-04-25T15:05:58;8.60;69.15
34145;HTU21D;69555;53.014;8.886;2023-04-25T15:08:24;8.88;64.11
34145;HTU21D;69555;53.014;8.886;2023-04-25T15:10:50;9.20;65.10
34145;HTU21D;69555;53.014;8.886;2023-04-25T15:13:18;9.40;64.15
34145;HTU21D;69555;53.014;8.886;2023-04-25T15:15:44;9.46;62.47
34145;HTU21D;69555;53.014;8.886;2023-04-25T15:18:09;9.77;61.20
34145;HTU21D;69555;53.014;8.886;2023-04-25T15:20:35;9.48;60.43
34145;HTU21D;69555;53.014;8.886;2023-04-25T15:23:02;9.14;63.23
34145;HTU21D;69555;53.014;8.886;2023-04-25T15:25:29;9.17;62.24
34145;HTU21D;69555;53.014;8.886;2023-04-25T15:27:56;8.86;66.24